Time;durP1;ratioP1;P1;durP2;ratioP2;P2;SDS_P1;SDS_P2;PMS_P1;PMS_P2;Temp;Humidity;BMP_temperature;BMP_pressure;BME280_temperature;BME280_humidity;BME280_pressure;Samples;Min_cycle;Max_cycle;Signal;HPM_P1;HPM_P2
2022/06/07 00:02:11;;;;;;;12.50;7.63;;;;;;;19.80;40.14;101315.22;5073062;28;20399;-85
2022/06/07 00:04:38;;;;;;;7.70;6.88;;;;;;;19.77;39.78;101313.13;5072751;28;20120;-85
2022/06/07 00:07:04;;;;;;;9.85;8.75;;;;;;;19.68;40.33;101315.31;5072747;28;20226;-85
2022/06/07 00:09:30;;;;;;;8.55;7.60;;;;;;;19.70;39.94;101315.75;5073008;28;20034;-87
2022/06/07 00:11:56;;;;;;;8.38;7.45;;;;;;;19.62;40.18;101311.22;5072741;28;20115;-86
2022/06/07 00:14:24;;;;;;;7.75;6.95;;;;;;;19.55;40.55;101319.31;5072718;28;20043;-85
2022/06/07 00:16:50;;;;;;;13.35;8.50;;;;;;;19.53;40.43;101305.84;5072955;28;20203;-90
2022/06/07 00:19:16;;;;;;;10.52;7.13;;;;;;;19.53;40.23;101300.28;5072858;28;20031;-86
2022/06/07 00:21:42;;;;;;;10.60;7.95;;;;;;;19.53;40.27;101305.03;5072220;28;20047;-86
2022/06/07 00:24:08;;;;;;;10.70;9.50;;;;;;;19.43;40.09;101303.63;5072572;28;20032;-85
2022/06/07 00:26:37;;;;;;;10.07;8.98;;;;;;;19.29;40.72;101298.53;5072935;28;20123;-88
2022/06/07 00:29:03;;;;;;;12.13;10.80;;;;;;;19.27;40.63;101295.31;5072602;28;20059;-86
2022/06/07 00:31:29;;;;;;;13.82;9.63;;;;;;;19.23;40.56;101296.38;5072321;28;20078;-85
2022/06/07 00:33:55;;;;;;;19.77;9.73;;;;;;;19.17;40.55;101298.63;5072703;28;20036;-85
2022/06/07 00:36:21;;;;;;;14.05;9.82;;;;;;;18.94;41.50;101294.84;5072633;28;20506;-86
2022/06/07 00:38:47;;;;;;;14.43;9.75;;;;;;;18.96;41.18;101293.34;5072189;28;20033;-86
2022/06/07 00:41:13;;;;;;;12.15;10.20;;;;;;;18.87;41.32;101289.13;5072576;28;20166;-91
2022/06/07 00:43:41;;;;;;;12.20;10.90;;;;;;;18.87;41.42;101289.94;5072423;28;20028;-86
2022/06/07 00:46:09;;;;;;;12.77;11.18;;;;;;;18.90;41.33;101292.00;5072562;28;20035;-86
2022/06/07 00:48:36;;;;;;;11.10;9.95;;;;;;;18.91;41.61;101290.84;5071978;28;20036;-86
2022/06/07 00:51:11;;;;;;;11.18;9.20;;;;;;;18.82;41.56;101296.56;5072331;28;20386;-86
2022/06/07 00:53:36;;;;;;;10.38;8.27;;;;;;;18.93;41.12;101294.06;5072074;28;20040;-85
2022/06/07 00:56:05;;;;;;;13.02;10.07;;;;;;;19.11;40.90;101298.06;5072256;28;20055;-85
2022/06/07 00:58:32;;;;;;;15.02;8.93;;;;;;;19.02;40.93;101289.13;5072231;28;20452;-86
2022/06/07 01:00:59;;;;;;;15.00;8.57;;;;;;;18.98;40.98;101290.22;5072229;28;20115;-89
2022/06/07 01:03:25;;;;;;;8.82;7.78;;;;;;;18.96;41.04;101287.78;5071876;28;20032;-85
2022/06/07 01:05:52;;;;;;;11.18;9.60;;;;;;;18.97;40.98;101288.63;5072137;28;20033;-86
2022/06/07 01:11:03;;;;;;;14.52;7.88;;;;;;;18.96;40.87;101271.19;5073952;28;20512;-85
2022/06/07 01:13:32;;;;;;;12.57;8.80;;;;;;;18.84;41.39;101276.81;5071747;28;20391;-86
2022/06/07 01:16:05;;;;;;;9.68;8.50;;;;;;;18.90;41.15;101274.59;5071862;28;20171;-86
2022/06/07 01:18:34;;;;;;;10.52;8.25;;;;;;;18.90;41.02;101269.84;5072096;28;20426;-86
2022/06/07 01:21:20;;;;;;;10.50;7.43;;;;;;;18.85;41.16;101278.41;5071827;28;20025;-86
2022/06/07 01:23:47;;;;;;;10.98;8.98;;;;;;;18.83;41.24;101276.00;5071822;28;20036;-84
2022/06/07 01:26:13;;;;;;;11.10;8.20;;;;;;;18.78;41.09;101272.69;5071841;28;20187;-89
2022/06/07 01:28:39;;;;;;;9.85;8.85;;;;;;;18.63;41.29;101267.91;5071924;28;20028;-86
2022/06/07 01:31:05;;;;;;;10.00;7.85;;;;;;;18.61;41.24;101271.03;5071825;28;20387;-85
2022/06/07 01:33:31;;;;;;;11.60;8.70;;;;;;;18.56;41.31;101263.78;5073040;28;20499;-85
2022/06/07 01:36:07;;;;;;;10.75;8.93;;;;;;;18.63;41.26;101263.19;5071506;28;20031;-85
2022/06/07 01:38:35;;;;;;;10.00;8.80;;;;;;;18.59;41.14;101265.06;5072016;28;20068;-85
2022/06/07 01:43:46;;;;;;;11.32;8.77;;;;;;;18.66;41.47;101256.94;5072824;28;20121;-88
2022/06/07 01:46:11;;;;;;;10.90;8.68;;;;;;;18.72;41.26;101249.19;5071687;28;20032;-86
2022/06/07 01:48:37;;;;;;;9.63;7.82;;;;;;;18.75;41.04;101257.63;5071572;28;20028;-86
2022/06/07 01:51:05;;;;;;;12.05;9.20;;;;;;;18.70;41.14;101255.09;5071554;28;20025;-85
2022/06/07 01:53:32;;;;;;;10.02;8.68;;;;;;;18.70;41.26;101248.75;5071617;28;20417;-85
2022/06/07 01:56:02;;;;;;;11.13;9.05;;;;;;;18.66;41.34;101245.88;5071495;28;20024;-86
2022/06/07 01:58:28;;;;;;;10.60;8.77;;;;;;;18.82;40.98;101245.94;5071761;28;20024;-85
2022/06/07 02:00:54;;;;;;;10.07;9.02;;;;;;;18.79;41.41;101244.66;5076602;28;20035;-86
2022/06/07 02:03:20;;;;;;;14.68;10.27;;;;;;;18.80;41.28;101240.72;5075750;28;20024;-85
2022/06/07 02:06:02;;;;;;;11.68;9.10;;;;;;;18.77;41.34;101243.41;5074617;28;20029;-86
2022/06/07 02:08:28;;;;;;;9.82;8.50;;;;;;;18.76;41.13;101245.38;5075721;28;20032;-84
2022/06/07 02:10:55;;;;;;;11.77;8.95;;;;;;;18.74;40.99;101246.88;5075543;28;20036;-86
2022/06/07 02:13:22;;;;;;;13.38;9.20;;;;;;;18.90;40.61;101238.59;5075189;28;20028;-86
2022/06/07 02:15:48;;;;;;;9.95;8.40;;;;;;;18.90;40.73;101227.53;5230997;22;20040;-86
2022/06/07 02:18:14;;;;;;;10.02;8.18;;;;;;;18.88;40.78;101227.84;5036465;28;20037;-85
2022/06/07 02:20:41;;;;;;;12.68;8.70;;;;;;;18.90;40.62;101228.31;5018411;28;20475;-86
2022/06/07 02:23:08;;;;;;;9.75;8.75;;;;;;;18.93;40.54;101224.03;5035581;28;20034;-86
2022/06/07 02:25:42;;;;;;;13.35;9.40;;;;;;;18.93;40.94;101224.84;5018553;28;20037;-85
2022/06/07 02:28:12;;;;;;;11.95;9.05;;;;;;;18.94;40.64;101223.66;5018769;28;20454;-84
2022/06/07 02:30:39;;;;;;;13.20;10.18;;;;;;;18.95;40.78;101225.28;5036458;28;20033;-84
2022/06/07 02:33:06;;;;;;;14.23;9.20;;;;;;;18.95;40.54;101218.94;5036193;28;20033;-85
2022/06/07 02:35:32;;;;;;;10.50;9.23;;;;;;;18.94;40.77;101223.66;5018595;28;20025;-85
2022/06/07 02:37:57;;;;;;;11.32;9.65;;;;;;;18.97;40.73;101222.16;5018572;28;20030;-85
2022/06/07 02:40:23;;;;;;;12.55;10.18;;;;;;;18.72;40.90;101216.78;5036199;28;20040;-85
2022/06/07 02:42:49;;;;;;;13.07;9.32;;;;;;;18.85;40.46;101215.53;5018300;28;20033;-86
2022/06/07 02:45:15;;;;;;;13.45;10.02;;;;;;;18.83;40.70;101217.88;5018601;28;20044;-85
2022/06/07 02:47:40;;;;;;;13.73;11.20;;;;;;;18.83;40.67;101212.34;5018334;28;20029;-86
2022/06/07 02:50:06;;;;;;;12.77;9.82;;;;;;;18.81;40.67;101209.09;5018610;28;20026;-91
2022/06/07 02:52:35;;;;;;;12.07;9.32;;;;;;;18.72;40.71;101210.44;5018297;28;20463;-86
2022/06/07 02:55:02;;;;;;;11.65;8.73;;;;;;;18.70;40.70;101201.72;5036009;28;20037;-85
2022/06/07 02:57:28;;;;;;;16.05;10.20;;;;;;;18.69;40.81;101205.63;5035890;28;20053;-84
2022/06/07 02:59:54;;;;;;;13.00;9.23;;;;;;;18.61;40.79;101209.34;5018267;28;20053;-85
2022/06/07 03:02:19;;;;;;;12.60;8.57;;;;;;;18.55;41.24;101198.53;5018092;28;20025;-93
2022/06/07 03:04:46;;;;;;;14.70;8.75;;;;;;;18.48;40.97;101205.84;5018025;28;20033;-84
2022/06/07 03:07:12;;;;;;;11.10;9.13;;;;;;;18.42;40.82;101194.22;5017994;28;20064;-85
2022/06/07 03:09:38;;;;;;;10.85;8.52;;;;;;;18.41;40.77;101194.59;5018073;28;20025;-85
2022/06/07 03:12:04;;;;;;;10.40;8.23;;;;;;;18.43;40.79;101195.03;5017893;28;20398;-84
2022/06/07 03:14:31;;;;;;;10.30;7.90;;;;;;;18.37;40.77;101188.97;5017979;28;20387;-92
2022/06/07 03:16:57;;;;;;;10.73;8.82;;;;;;;18.37;40.68;101190.94;5017512;28;20117;-86
2022/06/07 03:19:22;;;;;;;9.25;8.20;;;;;;;18.37;40.96;101190.94;5017786;28;20152;-92
2022/06/07 03:21:48;;;;;;;10.80;8.18;;;;;;;18.35;40.77;101194.03;5017548;28;20032;-85
2022/06/07 03:24:14;;;;;;;10.77;8.40;;;;;;;18.36;40.58;101186.53;5017790;28;20083;-86
2022/06/07 03:26:40;;;;;;;10.80;8.40;;;;;;;18.36;40.74;101186.53;5017461;28;20096;-84
2022/06/07 03:29:05;;;;;;;9.35;8.10;;;;;;;18.20;41.00;101190.09;5017487;28;20117;-85
2022/06/07 03:31:31;;;;;;;10.60;8.20;;;;;;;18.21;41.13;101188.13;5017423;28;20025;-90
2022/06/07 03:33:58;;;;;;;11.18;7.93;;;;;;;18.30;40.79;101186.03;5017277;28;20033;-86
2022/06/07 03:36:28;;;;;;;9.38;8.02;;;;;;;18.21;40.83;101179.81;5017312;28;20049;-85
2022/06/07 03:38:57;;;;;;;8.90;7.55;;;;;;;18.18;40.75;101177.78;5017612;28;20017;-86
2022/06/07 03:41:25;;;;;;;9.75;8.48;;;;;;;18.17;40.83;101176.97;5017462;28;20021;-85
2022/06/07 03:43:52;;;;;;;9.27;7.72;;;;;;;18.22;40.84;101179.50;5017175;28;20067;-91
2022/06/07 03:46:22;;;;;;;10.00;8.63;;;;;;;18.23;40.87;101172.81;5017221;28;20030;-85
2022/06/07 03:48:48;;;;;;;10.32;8.27;;;;;;;18.17;40.96;101168.69;5017385;28;20074;-85
2022/06/07 03:51:17;;;;;;;13.95;9.52;;;;;;;18.08;41.07;101176.34;5017294;28;20029;-85
2022/06/07 03:53:43;;;;;;;10.98;8.10;;;;;;;18.03;41.03;101169.09;5017247;28;20155;-91
2022/06/07 03:56:09;;;;;;;10.85;7.93;;;;;;;18.03;41.05;101174.63;5016895;28;20102;-84
2022/06/07 03:58:38;;;;;;;9.85;8.45;;;;;;;18.04;41.22;101175.41;5016910;28;20057;-84
2022/06/07 04:01:06;;;;;;;10.80;8.43;;;;;;;18.01;41.09;101168.66;5017086;28;20695;-85
2022/06/07 04:03:31;;;;;;;14.57;8.70;;;;;;;18.01;41.15;101178.91;5034426;28;20099;-85
2022/06/07 04:05:58;;;;;;;9.90;8.25;;;;;;;18.01;41.15;101171.41;5034524;28;20041;-85
2022/06/07 04:08:25;;;;;;;10.48;7.90;;;;;;;18.05;41.31;101168.72;5016970;28;20033;-84
2022/06/07 04:11:00;;;;;;;9.60;7.03;;;;;;;17.96;41.19;101166.13;5016773;28;20034;-85
2022/06/07 04:13:30;;;;;;;11.07;8.30;;;;;;;17.90;41.22;101167.53;5017309;28;20060;-84
2022/06/07 04:15:55;;;;;;;;;;;;;;;17.82;41.25;101167.69;5013418;28;20492;-85
2022/06/07 04:18:21;;;;;;;12.20;7.90;;;;;;;17.92;41.01;101167.19;5014529;28;19913;-85
2022/06/07 04:20:47;;;;;;;9.38;8.20;;;;;;;17.95;41.04;101170.06;5013357;28;20038;-85
2022/06/07 04:23:19;;;;;;;9.98;7.65;;;;;;;17.90;41.12;101170.28;5012739;28;20443;-85
2022/06/07 04:25:45;;;;;;;10.77;8.18;;;;;;;17.80;41.39;101175.53;5014687;28;20041;-84
2022/06/07 04:28:11;;;;;;;10.23;8.25;;;;;;;17.91;41.07;101168.34;5013022;28;20030;-85
2022/06/07 04:30:38;;;;;;;11.20;8.52;;;;;;;17.90;40.97;101173.06;5013379;28;20026;-86
2022/06/07 04:33:03;;;;;;;11.57;8.60;;;;;;;17.93;40.98;101169.59;5013112;28;20045;-85
2022/06/07 04:35:29;;;;;;;11.13;8.55;;;;;;;17.95;41.25;101175.59;5013005;28;20364;-85
2022/06/07 04:37:55;;;;;;;9.93;8.45;;;;;;;18.07;40.99;101171.97;5012802;28;20120;-84
2022/06/07 04:40:21;;;;;;;12.35;9.50;;;;;;;18.17;41.05;101171.44;5013271;28;20061;-92
2022/06/07 04:42:47;;;;;;;12.43;9.55;;;;;;;18.22;40.96;101171.19;5012857;28;20038;-85
2022/06/07 04:45:15;;;;;;;11.60;8.60;;;;;;;18.26;41.00;101172.09;5012971;28;20029;-84
2022/06/07 04:47:45;;;;;;;10.63;8.65;;;;;;;18.35;41.07;101173.88;5012734;28;20104;-85
2022/06/07 04:50:15;;;;;;;12.27;9.35;;;;;;;18.45;40.90;101184.44;5012972;28;20021;-85
2022/06/07 04:52:42;;;;;;;;;;;;;;;18.34;41.10;101172.28;5013257;28;20056;-85
2022/06/07 04:55:08;;;;;;;13.27;10.02;;;;;;;18.50;40.78;101167.56;5012689;28;19920;-85
2022/06/07 04:57:33;;;;;;;13.82;9.73;;;;;;;18.54;40.65;101165.69;5012898;28;20033;-85
2022/06/07 04:59:59;;;;;;;20.65;10.05;;;;;;;18.57;40.78;101164.97;5012829;28;20056;-85
2022/06/07 05:02:25;;;;;;;13.20;10.48;;;;;;;18.63;40.92;101169.06;5012924;28;20030;-84
2022/06/07 05:04:50;;;;;;;10.68;9.18;;;;;;;18.62;40.99;101164.72;5012869;28;20030;-84
2022/06/07 05:07:16;;;;;;;12.57;9.93;;;;;;;18.59;41.34;101165.44;5012844;28;20040;-84
2022/06/07 05:09:41;;;;;;;11.43;9.20;;;;;;;18.45;42.13;101168.63;5013666;28;20030;-85
2022/06/07 05:12:08;;;;;;;16.63;9.93;;;;;;;18.42;41.98;101174.06;5012475;28;20556;-85
2022/06/07 05:14:37;;;;;;;13.18;9.43;;;;;;;18.60;41.63;101166.25;5013787;28;20064;-84
2022/06/07 05:17:03;;;;;;;17.05;9.55;;;;;;;18.74;41.72;101161.06;5012172;28;20060;-84
2022/06/07 05:19:29;;;;;;;13.50;9.30;;;;;;;18.83;41.52;101162.50;5012242;28;20033;-84
2022/06/07 05:21:55;;;;;;;12.18;8.98;;;;;;;18.90;41.47;101161.06;5012060;28;20483;-84
2022/06/07 05:24:21;;;;;;;13.30;8.90;;;;;;;18.88;41.64;101160.59;5012081;28;20505;-84
2022/06/07 05:26:50;;;;;;;15.07;9.40;;;;;;;18.92;41.61;101158.75;5011985;28;20030;-83
2022/06/07 05:29:21;;;;;;;13.82;8.85;;;;;;;18.88;41.88;101155.06;5012161;28;20125;-83
2022/06/07 05:31:47;;;;;;;10.27;9.20;;;;;;;19.17;41.41;101149.03;5013449;28;20026;-83
2022/06/07 05:34:12;;;;;;;14.68;9.50;;;;;;;19.27;41.37;101158.75;5013610;28;20042;-84
2022/06/07 05:36:39;;;;;;;10.60;7.68;;;;;;;19.18;41.94;101150.63;5016273;28;20026;-84
2022/06/07 05:39:06;;;;;;;10.63;8.00;;;;;;;19.22;42.31;101139.66;5015928;28;20124;-83
2022/06/07 05:41:32;;;;;;;17.30;10.35;;;;;;;19.30;42.28;101158.84;5017406;28;20057;-84
2022/06/07 05:43:58;;;;;;;16.33;9.40;;;;;;;19.45;42.21;101153.59;5016073;28;20609;-84
2022/06/07 05:46:24;;;;;;;10.85;9.23;;;;;;;19.55;42.07;101158.56;5016057;28;20472;-85
2022/06/07 05:48:50;;;;;;;16.13;10.35;;;;;;;19.67;42.28;101155.69;5016251;28;20103;-83
2022/06/07 05:51:17;;;;;;;13.77;11.18;;;;;;;19.77;42.25;101159.84;5016274;28;20111;-84
2022/06/07 05:53:43;;;;;;;19.58;11.20;;;;;;;19.89;42.17;101163.28;5016029;28;20034;-86
2022/06/07 05:56:13;;;;;;;13.00;10.07;;;;;;;19.76;42.65;101159.03;5017127;28;20037;-92
2022/06/07 05:58:40;;;;;;;15.13;9.73;;;;;;;19.91;42.49;101160.13;5015707;28;20069;-85
2022/06/07 06:01:07;;;;;;;16.25;10.23;;;;;;;20.05;42.82;101165.97;5015852;28;20443;-85
2022/06/07 06:03:35;;;;;;;14.45;9.70;;;;;;;20.27;42.84;101166.38;5011934;28;20045;-92
2022/06/07 06:06:01;;;;;;;13.77;9.98;;;;;;;20.42;42.93;101166.25;5002860;28;20033;-86
2022/06/07 06:11:18;;;;;;;17.42;11.43;;;;;;;20.91;42.42;101161.91;5006215;28;20093;-83
2022/06/07 06:13:44;;;;;;;12.93;9.65;;;;;;;20.98;42.56;101154.50;5003289;28;20030;-84
2022/06/07 06:16:15;;;;;;;11.23;9.20;;;;;;;21.11;42.31;101146.75;5012695;28;20053;-90
2022/06/07 06:18:41;;;;;;;13.85;10.55;;;;;;;21.16;42.23;101146.44;5013658;28;20432;-83
2022/06/07 06:21:08;;;;;;;16.90;9.20;;;;;;;21.22;42.71;101153.25;5018433;28;20054;-85
2022/06/07 06:23:34;;;;;;;11.60;9.18;;;;;;;21.46;42.47;101148.44;5005557;28;20401;-85
2022/06/07 06:25:59;;;;;;;14.02;9.30;;;;;;;21.50;42.35;101150.09;5001477;28;20018;-85
2022/06/07 06:28:28;;;;;;;18.92;9.88;;;;;;;21.55;42.49;101149.78;4996746;28;20520;-86
2022/06/07 06:30:54;;;;;;;17.50;8.90;;;;;;;21.84;42.13;101152.91;5031196;28;20084;-84
2022/06/07 06:33:20;;;;;;;12.25;9.18;;;;;;;22.09;41.93;101159.56;5030800;28;21110;-90
2022/06/07 06:35:51;;;;;;;14.63;9.85;;;;;;;22.21;41.72;101154.91;5031997;28;20029;-87
2022/06/07 06:38:18;;;;;;;10.85;9.25;;;;;;;22.11;42.17;101157.22;4997180;28;20026;-89
2022/06/07 06:40:45;;;;;;;12.73;9.70;;;;;;;22.07;42.48;101150.78;5030559;28;20058;-92
2022/06/07 06:43:14;;;;;;;10.60;8.27;;;;;;;22.04;42.46;101154.31;5032094;28;20101;-87
2022/06/07 06:45:41;;;;;;;10.30;7.88;;;;;;;22.18;42.27;101148.13;5029520;28;20061;-86
2022/06/07 06:48:09;;;;;;;11.73;7.85;;;;;;;22.23;42.23;101155.34;4998455;28;20053;-87
2022/06/07 06:50:35;;;;;;;10.70;7.78;;;;;;;22.37;42.11;101152.72;5000928;28;20038;-89
2022/06/07 06:53:01;;;;;;;11.25;8.70;;;;;;;22.49;41.79;101155.19;5031406;28;20077;-86
2022/06/07 06:55:27;;;;;;;7.93;7.13;;;;;;;22.45;42.12;101153.56;4987125;28;20054;-85
2022/06/07 06:57:52;;;;;;;10.77;7.70;;;;;;;22.42;42.29;101155.13;5001053;28;20468;-83
2022/06/07 07:00:18;;;;;;;9.25;7.55;;;;;;;22.59;42.20;101148.91;5031763;28;20041;-85
2022/06/07 07:02:44;;;;;;;11.63;7.65;;;;;;;22.64;41.51;101145.78;5032836;28;20077;-85
2022/06/07 07:05:12;;;;;;;9.65;7.47;;;;;;;22.71;41.62;101145.03;4990675;28;20049;-84
2022/06/07 07:07:39;;;;;;;7.13;6.40;;;;;;;22.67;42.14;101150.59;5040320;28;20026;-85
2022/06/07 07:10:05;;;;;;;12.07;6.10;;;;;;;22.81;42.07;101151.88;5014738;28;20398;-85
2022/06/07 07:12:32;;;;;;;7.10;4.97;;;;;;;22.99;41.73;101144.47;5047717;28;20026;-84
2022/06/07 07:14:59;;;;;;;7.60;4.32;;;;;;;23.05;41.37;101131.78;5048007;28;20030;-86
2022/06/07 07:17:25;;;;;;;6.57;4.05;;;;;;;23.11;40.89;101144.13;5047644;28;20100;-85
2022/06/07 07:19:51;;;;;;;8.73;5.80;;;;;;;23.10;40.89;101127.81;5032604;28;20041;-85
2022/06/07 07:22:17;;;;;;;8.10;4.35;;;;;;;23.21;40.70;101146.22;5014784;28;20029;-88
2022/06/07 07:24:43;;;;;;;9.90;4.13;;;;;;;23.41;40.01;101143.91;5014277;28;20033;-87
2022/06/07 07:27:09;;;;;;;5.90;4.10;;;;;;;23.35;39.88;101139.91;5014222;28;20112;-84
2022/06/07 07:29:37;;;;;;;5.30;4.28;;;;;;;23.52;39.37;101125.25;5006888;28;20025;-86
2022/06/07 07:32:03;;;;;;;4.55;3.67;;;;;;;23.63;39.00;101133.69;5031364;28;20029;-86
2022/06/07 07:34:29;;;;;;;4.25;3.80;;;;;;;23.52;39.20;101136.41;4998447;28;20045;-86
2022/06/07 07:36:55;;;;;;;8.30;4.05;;;;;;;23.62;38.60;101132.09;4998675;28;20456;-85
2022/06/07 07:39:22;;;;;;;7.28;4.38;;;;;;;23.76;38.20;101122.97;5009302;28;20388;-86
2022/06/07 07:41:51;;;;;;;8.20;3.63;;;;;;;23.68;38.58;101124.16;5012085;28;20443;-84
2022/06/07 07:44:17;;;;;;;5.18;3.50;;;;;;;23.86;37.90;101113.03;5007792;28;20037;-89
2022/06/07 07:46:44;;;;;;;5.75;4.50;;;;;;;24.03;37.54;101110.28;5003879;28;20029;-85
2022/06/07 07:49:13;;;;;;;4.07;3.72;;;;;;;24.01;38.03;101107.06;5006528;28;20026;-89
2022/06/07 07:51:41;;;;;;;6.55;4.38;;;;;;;24.00;38.45;101105.50;4998936;28;20022;-88
2022/06/07 07:54:10;;;;;;;7.00;5.30;;;;;;;24.06;38.72;101106.69;5037390;28;20088;-89
2022/06/07 07:56:36;;;;;;;4.97;4.25;;;;;;;24.17;38.42;101101.13;4995921;28;20019;-86
2022/06/07 07:59:04;;;;;;;6.80;5.00;;;;;;;24.24;38.48;101098.34;5006650;28;20022;-86
2022/06/07 08:01:31;;;;;;;10.98;5.32;;;;;;;24.22;38.80;101100.75;5000956;28;20633;-88
2022/06/07 08:03:58;;;;;;;19.13;7.18;;;;;;;24.22;38.85;101102.72;4994444;28;20031;-84
2022/06/07 08:06:25;;;;;;;7.35;4.75;;;;;;;24.33;39.10;101106.34;5011358;28;20029;-86
2022/06/07 08:08:53;;;;;;;4.88;4.35;;;;;;;24.40;38.63;101102.75;5009406;28;20034;-84
2022/06/07 08:11:21;;;;;;;10.05;4.82;;;;;;;24.49;38.73;101106.78;5006525;28;20484;-85
2022/06/07 08:13:47;;;;;;;10.10;6.32;;;;;;;24.62;38.40;101105.16;5000440;28;20030;-85
2022/06/07 08:16:13;;;;;;;7.32;5.43;;;;;;;24.75;38.51;101097.16;4998580;28;20069;-84
2022/06/07 08:18:40;;;;;;;6.32;5.50;;;;;;;24.65;38.85;101108.34;5005582;28;20099;-86
2022/06/07 08:21:09;;;;;;;11.07;6.30;;;;;;;24.61;38.60;101102.75;5005964;28;20075;-87
2022/06/07 08:23:36;;;;;;;5.85;4.82;;;;;;;24.67;38.48;101095.56;4999948;28;20027;-87
2022/06/07 08:26:05;;;;;;;6.18;5.40;;;;;;;24.79;38.54;101097.97;4997672;28;20046;-83
2022/06/07 08:28:31;;;;;;;8.45;4.90;;;;;;;24.91;38.23;101080.75;5003169;28;20162;-87
2022/06/07 08:30:57;;;;;;;7.00;5.18;;;;;;;24.86;38.30;101085.94;5004324;28;20030;-84
2022/06/07 08:38:54;;;;;;;8.18;5.97;;;;;;;25.15;37.98;101084.72;4997502;28;20069;-85
2022/06/07 08:41:46;;;;;;;8.50;5.60;;;;;;;25.03;37.81;101085.16;5017924;28;20606;-87
2022/06/07 08:44:22;;;;;;;6.53;4.97;;;;;;;25.13;37.88;101084.31;5001590;28;20022;-86
2022/06/07 08:46:51;;;;;;;7.75;6.00;;;;;;;25.09;37.89;101088.31;5012227;28;20054;-92
2022/06/07 08:49:18;;;;;;;9.68;5.10;;;;;;;24.99;37.94;101083.53;5008430;28;20046;-88
2022/06/07 08:52:08;;;;;;;11.23;5.63;;;;;;;25.08;37.62;101075.53;5011315;28;20497;-86
2022/06/07 08:54:37;;;;;;;12.80;5.95;;;;;;;25.05;38.12;101073.56;5018947;28;20041;-84
2022/06/07 08:57:20;;;;;;;5.38;4.57;;;;;;;25.22;37.68;101071.91;5018622;28;20056;-85
2022/06/07 09:00:16;;;;;;;8.18;5.25;;;;;;;25.25;37.69;101071.91;5016652;28;20042;-85
2022/06/07 09:02:51;;;;;;;6.82;5.82;;;;;;;25.17;38.06;101067.56;4999059;28;20036;-84
2022/06/07 09:05:17;;;;;;;8.20;5.30;;;;;;;25.18;37.98;101075.53;5011351;28;20038;-85
2022/06/07 09:07:44;;;;;;;6.75;5.82;;;;;;;25.21;37.87;101073.13;5009581;28;20048;-84
2022/06/07 09:13:05;;;;;;;5.53;5.00;;;;;;;25.29;37.86;101064.28;5012436;28;20048;-86
2022/06/07 09:15:34;;;;;;;6.28;4.93;;;;;;;25.30;37.96;101059.50;5010595;28;20026;-84
2022/06/07 09:18:03;;;;;;;7.72;5.13;;;;;;;25.30;38.12;101057.50;5013582;28;20067;-83
2022/06/07 09:20:38;;;;;;;4.80;4.37;;;;;;;25.44;37.43;101048.25;5027289;28;20144;-85
2022/06/07 09:23:18;;;;;;;6.88;4.75;;;;;;;25.42;37.34;101054.25;5030661;28;20290;-85
2022/06/07 09:25:51;;;;;;;6.78;4.65;;;;;;;25.36;37.52;101049.47;5031426;28;20538;-86
2022/06/07 09:28:23;;;;;;;7.65;4.72;;;;;;;25.51;37.43;101051.00;5031281;28;20025;-92
2022/06/07 09:30:58;;;;;;;6.15;4.15;;;;;;;25.54;37.09;101052.97;5017638;28;20476;-82
2022/06/07 09:33:28;;;;;;;5.35;4.25;;;;;;;25.45;37.01;101056.22;5014290;28;20034;-84
2022/06/07 09:36:05;;;;;;;5.53;4.55;;;;;;;25.20;37.37;101061.13;5014923;28;20033;-83
2022/06/07 09:38:36;;;;;;;5.32;4.78;;;;;;;25.25;36.92;101057.94;5015022;28;20034;-83
2022/06/07 09:41:36;;;;;;;10.27;4.80;;;;;;;25.53;36.55;101047.78;5014901;28;20026;-83
2022/06/07 09:44:17;;;;;;;7.10;4.50;;;;;;;25.68;36.41;101038.91;5032471;28;20088;-84
2022/06/07 09:46:47;;;;;;;5.05;3.22;;;;;;;25.49;36.68;101039.44;5032616;28;20022;-83
2022/06/07 09:49:44;;;;;;;5.78;3.35;;;;;;;25.55;35.43;101031.41;5030743;28;20230;-83
2022/06/07 09:52:26;;;;;;;6.40;3.35;;;;;;;25.65;35.24;101036.16;5030453;28;20124;-83
2022/06/07 09:54:58;;;;;;;3.13;2.30;;;;;;;25.55;35.29;101032.22;5031490;28;20025;-87
2022/06/07 09:57:56;;;;;;;9.88;2.75;;;;;;;25.71;34.95;101048.50;5032441;28;20490;-83
2022/06/07 10:00:26;;;;;;;5.60;2.83;;;;;;;25.59;34.77;101046.16;5031350;28;20505;-82
2022/06/07 10:03:03;;;;;;;8.23;3.70;;;;;;;25.59;35.40;101046.16;5032655;28;20037;-83
2022/06/07 10:05:51;;;;;;;4.57;2.70;;;;;;;25.40;35.53;101034.28;5031102;28;20379;-86
2022/06/07 10:08:47;;;;;;;3.42;2.80;;;;;;;25.33;35.69;101025.94;5031095;28;20430;-82
2022/06/07 10:11:25;;;;;;;4.15;2.22;;;;;;;25.48;34.87;101021.06;5031047;28;20029;-83
2022/06/07 10:14:08;;;;;;;6.38;2.92;;;;;;;25.43;35.39;101019.47;5032652;28;20022;-83
2022/06/07 10:16:56;;;;;;;7.18;2.60;;;;;;;25.56;35.24;101016.22;5032002;28;20046;-82
2022/06/07 10:20:12;;;;;;;5.72;2.67;;;;;;;25.40;34.54;101011.13;5030844;28;20025;-86
2022/06/07 10:22:49;;;;;;;4.13;2.85;;;;;;;25.61;34.42;101004.56;4988303;28;20049;-83
2022/06/07 10:25:20;;;;;;;5.68;2.58;;;;;;;25.61;33.94;101007.38;5035993;28;20432;-82
2022/06/07 10:27:58;;;;;;;3.63;2.20;;;;;;;25.54;33.41;101018.59;5018142;28;20052;-82
2022/06/07 10:30:29;;;;;;;6.97;3.15;;;;;;;25.81;33.72;101010.47;5011828;28;20079;-83
2022/06/07 10:32:58;;;;;;;5.57;2.83;;;;;;;25.82;33.73;101000.88;5013228;28;20033;-82
2022/06/07 10:35:39;;;;;;;3.85;2.20;;;;;;;26.12;33.26;101009.44;5011588;28;20116;-85
2022/06/07 10:38:33;;;;;;;4.15;2.22;;;;;;;25.96;33.10;101000.78;5034176;28;20021;-82
2022/06/07 10:41:14;;;;;;;4.82;2.20;;;;;;;25.92;33.43;100995.22;5007208;28;20116;-84
2022/06/07 10:43:51;;;;;;;2.75;2.00;;;;;;;25.93;33.13;100991.19;5009516;28;20022;-82
2022/06/07 10:46:20;;;;;;;5.53;2.63;;;;;;;26.12;32.88;100989.03;5018483;28;20096;-81
2022/06/07 10:49:08;;;;;;;6.85;2.75;;;;;;;26.18;32.84;100993.00;5005965;28;20033;-81
2022/06/07 10:54:57;;;;;;;5.90;2.53;;;;;;;26.08;32.61;100979.88;5035152;28;20147;-82
2022/06/07 10:57:35;;;;;;;6.65;2.40;;;;;;;26.08;31.99;100980.69;4991916;28;20041;-82
2022/06/07 11:00:30;;;;;;;5.43;2.65;;;;;;;25.90;32.09;100968.81;5034976;28;20101;-82
2022/06/07 11:03:28;;;;;;;2.55;1.90;;;;;;;26.02;32.08;100965.53;5015836;28;20431;-82
2022/06/07 11:09:22;;;;;;;2.20;1.80;;;;;;;26.08;32.32;100958.28;5034394;28;20032;-82
2022/06/07 11:11:57;;;;;;;3.03;2.30;;;;;;;25.92;32.08;100958.81;5016826;28;20018;-82
2022/06/07 11:14:49;;;;;;;3.38;2.20;;;;;;;25.99;32.48;100966.34;5016365;28;20025;-81
2022/06/07 11:17:28;;;;;;;5.07;2.25;;;;;;;26.02;32.63;100962.72;5017527;28;20092;-82
2022/06/07 11:19:54;;;;;;;4.35;2.58;;;;;;;25.96;32.47;100948.38;5023755;28;20029;-80
2022/06/07 11:22:26;;;;;;;15.55;5.18;;;;;;;26.21;32.38;100944.53;5020253;28;20029;-81
2022/06/07 11:25:29;;;;;;;4.72;2.60;;;;;;;26.08;32.53;100951.88;5006623;28;20033;-85
2022/06/07 11:28:03;;;;;;;5.85;2.22;;;;;;;25.80;32.38;100938.94;5002162;28;20034;-82
2022/06/07 11:30:36;;;;;;;2.15;1.70;;;;;;;25.95;32.16;100932.78;5029438;28;20029;-82
2022/06/07 11:33:03;;;;;;;2.28;1.80;;;;;;;26.18;31.77;100929.38;5022411;28;20018;-81
2022/06/07 11:35:47;;;;;;;4.35;2.20;;;;;;;26.28;31.58;100924.84;5006934;28;20021;-81
2022/06/07 11:38:19;;;;;;;2.70;1.88;;;;;;;26.00;31.76;100912.75;5004309;28;20534;-83
2022/06/07 11:40:46;;;;;;;6.43;2.03;;;;;;;25.93;31.89;100910.03;5008203;28;20055;-85
2022/06/07 11:44:06;;;;;;;4.35;1.88;;;;;;;26.18;31.74;100914.56;5006271;28;20033;-82
2022/06/07 11:46:35;;;;;;;;;;;;;;;25.88;32.04;100910.44;4971259;28;20020;-83
2022/06/07 11:49:25;;;;;;;3.10;2.10;;;;;;;25.90;32.33;100910.03;5005114;28;20060;-86
2022/06/07 11:51:55;;;;;;;2.03;1.77;;;;;;;26.17;32.00;100907.38;5026921;28;20368;-82
2022/06/07 11:54:37;;;;;;;3.40;2.00;;;;;;;26.24;32.00;100907.31;5024837;28;20476;-83
2022/06/07 11:57:22;;;;;;;3.08;1.92;;;;;;;26.31;31.71;100906.44;5027789;28;20483;-86
2022/06/07 11:59:51;;;;;;;2.50;1.70;;;;;;;26.53;31.88;100917.03;5008111;28;20416;-82